createdAt,value
2018-01-13T00:01:19.665Z,100889.38
2018-01-13T00:03:47.235Z,100889.25
2018-01-13T00:06:14.834Z,100893.93
2018-01-13T00:08:42.399Z,100894.34
2018-01-13T00:11:10.240Z,100883.88
2018-01-13T00:13:37.838Z,100890.19
2018-01-13T00:16:05.530Z,100884.05
2018-01-13T00:18:33.098Z,100887.06
2018-01-13T00:21:00.826Z,100875.55
2018-01-13T00:23:28.514Z,100880.25
2018-01-13T00:25:56.084Z,100878.59
2018-01-13T00:28:23.738Z,100884.97
2018-01-13T00:30:51.315Z,100890.61
2018-01-13T00:33:18.890Z,100893.36
2018-01-13T00:35:46.624Z,100886.87
2018-01-13T00:38:14.281Z,100890.67
2018-01-13T00:40:41.856Z,100892.12
2018-01-13T00:43:09.480Z,100892.50
2018-01-13T00:45:37.055Z,100888.30
2018-01-13T00:48:04.614Z,100897.23
2018-01-13T00:50:32.298Z,100894.35
2018-01-13T00:52:59.868Z,100902.45
2018-01-13T00:55:27.448Z,100895.83
2018-01-13T00:57:55.094Z,100896.23
2018-01-13T01:00:22.830Z,100892.52
2018-01-13T01:02:50.533Z,100898.56
2018-01-13T01:05:18.150Z,100901.22
2018-01-13T01:07:45.706Z,100900.98
2018-01-13T01:10:13.284Z,100902.54
2018-01-13T01:12:40.895Z,100904.36
2018-01-13T01:15:08.441Z,100902.81
2018-01-13T01:17:36.016Z,100904.05
2018-01-13T01:20:03.635Z,100908.94
2018-01-13T01:22:31.197Z,100899.95
2018-01-13T01:24:58.851Z,100902.13
2018-01-13T01:27:26.713Z,100892.20
2018-01-13T01:29:54.586Z,100896.19
2018-01-13T01:32:22.241Z,100895.50
2018-01-13T01:34:49.839Z,100900.31
2018-01-13T01:37:17.555Z,100892.36
2018-01-13T01:39:45.125Z,100900.80
2018-01-13T01:42:12.726Z,100903.88
2018-01-13T01:44:40.287Z,100900.28
2018-01-13T01:47:07.859Z,100899.30
2018-01-13T01:49:35.469Z,100915.77
2018-01-13T01:52:03.042Z,100906.33
2018-01-13T01:54:30.607Z,100899.62
2018-01-13T01:56:58.271Z,100907.59
2018-01-13T01:59:25.833Z,100907.48
2018-01-13T02:01:53.413Z,100900.28
2018-01-13T02:04:21.037Z,100906.95
2018-01-13T02:06:48.613Z,100907.48
2018-01-13T02:09:16.362Z,100914.07
2018-01-13T02:11:43.972Z,100917.78
2018-01-13T02:14:11.544Z,100919.03
2018-01-13T02:16:39.110Z,100921.67
2018-01-13T02:19:06.723Z,100922.25
2018-01-13T02:21:34.287Z,100919.33
2018-01-13T02:24:01.895Z,100916.38
2018-01-13T02:26:29.603Z,100912.33
2018-01-13T02:28:57.207Z,100919.26
2018-01-13T02:31:24.779Z,100926.00
2018-01-13T02:33:52.381Z,100912.90
2018-01-13T02:36:20.021Z,100907.75
2018-01-13T02:38:47.597Z,100911.95
2018-01-13T02:41:15.256Z,100913.12
2018-01-13T02:43:42.840Z,100908.66
2018-01-13T02:46:10.463Z,100914.72
2018-01-13T02:48:38.071Z,100912.45
2018-01-13T02:51:05.639Z,100911.46
2018-01-13T02:53:33.238Z,100916.77
2018-01-13T02:56:00.918Z,100921.50
2018-01-13T02:58:28.591Z,100919.83
2018-01-13T03:00:56.300Z,100922.33
2018-01-13T03:03:23.924Z,100917.11
2018-01-13T03:05:51.491Z,100920.32
2018-01-13T03:08:19.234Z,100918.92
2018-01-13T03:10:47.084Z,100921.12
2018-01-13T03:13:14.662Z,100916.19
2018-01-13T03:15:42.233Z,100919.38
2018-01-13T03:18:09.855Z,100914.86
2018-01-13T03:20:37.444Z,100916.13
2018-01-13T03:23:05.020Z,100917.03
2018-01-13T03:25:32.690Z,100920.25
2018-01-13T03:28:00.639Z,100921.38
2018-01-13T03:30:28.222Z,100923.58
2018-01-13T03:32:55.831Z,100929.59
2018-01-13T03:35:23.400Z,100920.28
2018-01-13T03:37:50.985Z,100917.70
2018-01-13T03:40:18.612Z,100923.00
2018-01-13T03:42:46.184Z,100924.86
2018-01-13T03:45:13.942Z,100922.19
2018-01-13T03:47:41.626Z,100927.24
2018-01-13T03:50:09.195Z,100929.66
2018-01-13T03:52:36.772Z,100926.15
2018-01-13T03:55:04.387Z,100928.23
2018-01-13T03:57:32.063Z,100925.32
2018-01-13T03:59:59.635Z,100930.55
2018-01-13T04:02:27.237Z,100934.60
2018-01-13T04:04:54.828Z,100931.69
2018-01-13T04:07:22.411Z,100923.62
2018-01-13T04:09:50.028Z,100926.88
2018-01-13T04:12:17.632Z,100922.48
2018-01-13T04:14:45.281Z,100923.80
2018-01-13T04:17:13.160Z,100928.23
2018-01-13T04:19:40.807Z,100927.94
2018-01-13T04:22:08.389Z,100929.04
2018-01-13T04:24:35.999Z,100929.88
2018-01-13T04:27:03.625Z,100931.34
2018-01-13T04:29:31.267Z,100937.75
2018-01-13T04:31:58.879Z,100941.34
2018-01-13T04:34:26.575Z,100933.73
2018-01-13T04:36:54.238Z,100931.00
2018-01-13T04:39:21.845Z,100926.88
2018-01-13T04:41:49.711Z,100935.89
2018-01-13T04:44:17.287Z,100942.71
2018-01-13T04:46:45.249Z,100943.34
2018-01-13T04:49:12.835Z,100944.03
2018-01-13T04:51:40.403Z,100946.34
2018-01-13T04:54:08.082Z,100950.20
2018-01-13T04:56:35.664Z,100955.67
2018-01-13T04:59:03.476Z,100958.19
2018-01-13T05:01:31.273Z,100959.09
2018-01-13T05:03:58.850Z,100966.89
2018-01-13T05:06:26.426Z,100972.68
2018-01-13T05:08:54.048Z,100972.89
2018-01-13T05:11:22.138Z,100976.39
2018-01-13T05:13:49.732Z,100973.87
2018-01-13T05:16:17.351Z,100976.66
2018-01-13T05:18:44.927Z,100972.53
2018-01-13T05:21:12.489Z,100949.69
2018-01-13T05:23:40.095Z,100963.40
2018-01-13T05:26:07.668Z,100974.41
2018-01-13T05:28:35.347Z,100979.85
2018-01-13T05:31:03.015Z,100982.54
2018-01-13T05:33:30.691Z,100983.81
2018-01-13T05:35:58.330Z,100983.83
2018-01-13T05:38:25.940Z,100985.55
2018-01-13T05:40:53.656Z,100985.63
2018-01-13T05:43:21.234Z,100980.18
2018-01-13T05:45:48.838Z,100983.50
2018-01-13T05:48:16.418Z,100985.22
2018-01-13T05:50:43.987Z,100992.40
2018-01-13T05:53:11.599Z,100998.73
2018-01-13T05:55:39.171Z,101000.19
2018-01-13T05:58:06.904Z,101000.56
2018-01-13T06:00:34.531Z,100999.63
2018-01-13T06:03:02.116Z,101006.75
2018-01-13T06:05:29.698Z,101003.23
2018-01-13T06:07:57.309Z,101003.55
2018-01-13T06:10:25.006Z,101002.69
2018-01-13T06:12:52.669Z,101007.05
2018-01-13T06:15:20.265Z,101009.38
2018-01-13T06:17:47.844Z,101008.65
2018-01-13T06:20:15.450Z,101012.28
2018-01-13T06:22:43.057Z,101008.62
2018-01-13T06:25:10.765Z,100999.85
2018-01-13T06:27:38.353Z,100999.36
2018-01-13T06:30:06.084Z,101008.02
2018-01-13T06:32:33.642Z,101002.31
2018-01-13T06:35:01.203Z,101008.31
2018-01-13T06:37:28.810Z,101008.31
2018-01-13T06:39:56.530Z,101013.77
2018-01-13T06:42:24.202Z,101015.20
2018-01-13T06:44:51.811Z,101008.34
2018-01-13T06:47:19.378Z,101014.19
2018-01-13T06:49:46.931Z,101026.52
2018-01-13T06:52:14.553Z,101012.94
2018-01-13T06:54:42.125Z,101012.42
2018-01-13T06:57:09.689Z,101018.66
2018-01-13T06:59:37.430Z,101029.63
2018-01-13T07:02:05.302Z,101023.37
2018-01-13T07:04:32.894Z,101022.95
2018-01-13T07:07:00.742Z,101034.73
2018-01-13T07:09:28.496Z,101026.36
2018-01-13T07:11:56.077Z,101021.81
2018-01-13T07:14:23.685Z,101022.30
2018-01-13T07:16:51.658Z,101020.14
2018-01-13T07:19:19.396Z,100999.36
2018-01-13T07:21:47.035Z,101025.36
2018-01-13T07:24:14.855Z,101024.25
2018-01-13T07:26:42.616Z,101029.44
2018-01-13T07:29:10.389Z,101033.75
2018-01-13T07:31:37.956Z,101029.23
2018-01-13T07:34:05.717Z,101034.66
2018-01-13T07:36:33.396Z,101037.72
2018-01-13T07:39:00.965Z,101041.20
2018-01-13T07:41:28.696Z,101044.33
2018-01-13T07:43:56.303Z,101042.80
2018-01-13T07:46:24.031Z,101048.82
2018-01-13T07:48:51.702Z,101041.30
2018-01-13T07:51:19.347Z,101042.34
2018-01-13T07:53:47.205Z,101047.67
2018-01-13T07:56:14.799Z,101045.79
2018-01-13T07:58:42.455Z,101040.81
2018-01-13T08:01:10.198Z,101040.64
2018-01-13T08:03:38.085Z,101041.06
2018-01-13T08:06:05.734Z,101040.75
2018-01-13T08:08:33.406Z,101039.88
2018-01-13T08:11:00.975Z,101038.28
2018-01-13T08:13:28.592Z,101048.23
2018-01-13T08:15:56.154Z,101054.22
2018-01-13T08:18:23.719Z,101060.13
2018-01-13T08:20:51.324Z,101061.80
2018-01-13T08:23:18.972Z,101061.25
2018-01-13T08:25:46.539Z,101061.55
2018-01-13T08:28:14.152Z,101068.45
2018-01-13T08:30:41.719Z,101066.09
2018-01-13T08:33:09.276Z,101069.60
2018-01-13T08:35:37.064Z,101068.17
2018-01-13T08:38:04.750Z,101066.88
2018-01-13T08:40:32.597Z,101077.36
2018-01-13T08:43:00.224Z,101082.37
2018-01-13T08:45:27.808Z,101085.64
2018-01-13T08:47:55.569Z,101084.98
2018-01-13T08:50:23.250Z,101084.50
2018-01-13T08:52:50.828Z,101085.05
2018-01-13T08:55:18.561Z,101084.81
2018-01-13T08:57:46.208Z,101084.08
2018-01-13T09:00:13.840Z,101095.56
2018-01-13T09:02:41.880Z,101090.59
2018-01-13T09:05:09.539Z,101086.23
2018-01-13T09:07:37.354Z,101084.08
2018-01-13T09:10:04.928Z,101090.17
2018-01-13T09:12:32.545Z,101091.81
2018-01-13T09:15:00.120Z,101089.38
2018-01-13T09:17:27.749Z,101087.67
2018-01-13T09:19:55.363Z,101094.63
2018-01-13T09:22:22.950Z,101092.82
2018-01-13T09:24:50.544Z,101084.75
2018-01-13T09:27:18.165Z,101088.19
2018-01-13T09:29:45.743Z,101084.36
2018-01-13T09:32:13.316Z,101078.16
2018-01-13T09:34:40.959Z,101077.28
2018-01-13T09:37:08.611Z,101080.48
2018-01-13T09:39:36.246Z,101073.44
2018-01-13T09:42:03.872Z,101070.50
2018-01-13T09:44:31.608Z,101067.89
2018-01-13T09:46:59.188Z,101066.39
2018-01-13T09:49:26.924Z,101067.05
2018-01-13T09:51:54.607Z,101064.15
2018-01-13T09:54:22.318Z,101063.24
2018-01-13T09:56:50.136Z,101056.14
2018-01-13T09:59:17.715Z,101056.25
2018-01-13T10:01:45.446Z,101053.99
2018-01-13T10:04:13.056Z,101058.27
2018-01-13T10:06:40.639Z,101050.78
2018-01-13T10:09:08.212Z,101056.98
2018-01-13T10:11:35.802Z,101047.13
2018-01-13T10:14:03.386Z,101046.80
2018-01-13T10:16:31.065Z,101048.92
2018-01-13T10:18:58.679Z,101042.72
2018-01-13T10:21:26.268Z,101039.37
2018-01-13T10:23:53.856Z,101037.09
2018-01-13T10:26:21.467Z,101037.56
2018-01-13T10:28:49.022Z,101034.73
2018-01-13T10:31:16.600Z,101039.66
2018-01-13T10:33:44.249Z,101032.47
2018-01-13T10:36:11.826Z,101035.48
2018-01-13T10:38:39.410Z,101031.85
2018-01-13T10:41:07.012Z,101037.94
2018-01-13T10:43:34.693Z,101029.67
2018-01-13T10:46:02.387Z,101028.44
2018-01-13T10:48:30.143Z,101017.86
2018-01-13T10:50:58.907Z,101014.13
2018-01-13T10:53:26.475Z,101022.98
2018-01-13T10:55:54.154Z,101031.95
2018-01-13T10:58:21.716Z,101025.67
2018-01-13T11:00:49.284Z,101028.48
2018-01-13T11:03:16.902Z,101023.60
2018-01-13T11:05:44.524Z,101028.30
2018-01-13T11:08:12.140Z,101026.25
2018-01-13T11:10:39.741Z,101027.95
2018-01-13T11:13:07.307Z,101023.60
2018-01-13T11:15:35.310Z,101023.42
2018-01-13T11:18:02.963Z,101018.30
2018-01-13T11:20:30.536Z,101019.20
2018-01-13T11:22:58.117Z,101022.42
2018-01-13T11:25:25.731Z,101020.95
2018-01-13T11:27:53.293Z,101026.30
2018-01-13T11:30:20.872Z,101020.33
2018-01-13T11:32:48.479Z,101022.28
2018-01-13T11:35:16.052Z,101011.96
2018-01-13T11:37:43.672Z,101026.77
2018-01-13T11:40:11.275Z,101024.91
2018-01-13T11:42:38.893Z,101019.22
2018-01-13T11:45:06.484Z,101024.72
2018-01-13T11:47:34.191Z,101024.51
2018-01-13T11:50:01.790Z,101025.38
2018-01-13T11:52:29.364Z,101024.47
2018-01-13T11:54:56.961Z,101027.53
2018-01-13T11:57:24.584Z,101021.55
2018-01-13T11:59:52.148Z,101018.30
2018-01-13T12:02:19.720Z,101021.89
2018-01-13T12:04:47.339Z,101026.02
2018-01-13T12:07:14.899Z,101012.41
2018-01-13T12:09:42.468Z,101016.92
2018-01-13T12:12:10.075Z,101019.63
2018-01-13T12:14:37.630Z,101025.08
2018-01-13T12:17:05.200Z,101022.84
2018-01-13T12:19:32.903Z,101019.21
2018-01-13T12:22:00.470Z,101017.64
2018-01-13T12:24:28.057Z,101019.77
2018-01-13T12:26:55.694Z,101017.53
2018-01-13T12:29:23.279Z,101016.63
2018-01-13T12:31:50.853Z,101009.94
2018-01-13T12:34:18.468Z,101020.17
2018-01-13T12:36:46.107Z,101021.91
2018-01-13T12:39:13.686Z,101024.09
2018-01-13T12:41:41.315Z,101018.28
2018-01-13T12:44:08.915Z,101023.99
2018-01-13T12:46:36.487Z,101020.95
2018-01-13T12:49:04.081Z,101023.23
2018-01-13T12:51:31.631Z,101024.78
2018-01-13T12:53:59.196Z,101020.28
2018-01-13T12:56:27.014Z,101031.13
2018-01-13T12:58:54.598Z,101028.14
2018-01-13T13:01:22.175Z,101024.60
2018-01-13T13:03:49.811Z,101024.77
2018-01-13T13:06:17.402Z,101028.28
2018-01-13T13:08:46.550Z,101026.01
2018-01-13T13:11:14.631Z,101035.98
2018-01-13T13:13:42.292Z,101032.63
2018-01-13T13:16:09.865Z,101025.19
2018-01-13T13:18:37.472Z,101027.41
2018-01-13T13:21:05.051Z,101028.06
2018-01-13T13:23:32.616Z,101031.73
2018-01-13T13:26:00.391Z,101035.14
2018-01-13T13:28:28.060Z,101033.92
2018-01-13T13:30:55.672Z,101042.41
2018-01-13T13:33:23.232Z,101027.25
2018-01-13T13:35:50.806Z,101026.71
2018-01-13T13:38:18.407Z,101023.02
2018-01-13T13:40:45.992Z,101022.12
2018-01-13T13:43:13.555Z,101028.47
2018-01-13T13:45:41.141Z,101033.70
2018-01-13T13:48:08.741Z,101037.94
2018-01-13T13:50:36.310Z,101035.02
2018-01-13T13:53:04.062Z,101037.98
2018-01-13T13:55:31.722Z,101041.10
2018-01-13T13:57:59.364Z,101044.70
2018-01-13T14:00:26.969Z,101045.89
2018-01-13T14:02:54.526Z,101051.23
2018-01-13T14:05:22.146Z,101048.22
2018-01-13T14:07:49.761Z,101053.16
2018-01-13T14:10:17.334Z,101061.53
2018-01-13T14:12:44.896Z,101059.30
2018-01-13T14:15:12.513Z,101063.89
2018-01-13T14:17:40.100Z,101060.44
2018-01-13T14:20:07.667Z,101064.56
2018-01-13T14:22:35.287Z,101069.95
2018-01-13T14:25:02.847Z,101068.69
2018-01-13T14:27:30.407Z,101070.61
2018-01-13T14:29:58.011Z,101073.11
2018-01-13T14:32:25.585Z,101070.71
2018-01-13T14:34:53.167Z,101074.02
2018-01-13T14:37:20.762Z,101067.37
2018-01-13T14:39:48.342Z,101071.69
2018-01-13T14:42:16.085Z,101075.66
2018-01-13T14:44:43.699Z,101075.45
2018-01-13T14:47:11.269Z,101075.20
2018-01-13T14:49:39.106Z,101082.19
2018-01-13T14:52:06.703Z,101087.20
2018-01-13T14:54:34.379Z,101086.48
2018-01-13T14:57:01.964Z,101088.52
2018-01-13T14:59:29.573Z,101088.34
2018-01-13T15:01:57.166Z,101088.51
2018-01-13T15:04:24.739Z,101088.43
2018-01-13T15:06:52.386Z,101092.20
2018-01-13T15:09:19.943Z,101085.63
2018-01-13T15:11:47.550Z,101081.25
2018-01-13T15:14:15.274Z,101090.69
2018-01-13T15:16:42.838Z,101088.17
2018-01-13T15:19:10.596Z,101082.98
2018-01-13T15:21:38.201Z,101081.03
2018-01-13T15:24:05.818Z,101080.91
2018-01-13T15:26:33.642Z,101081.80
2018-01-13T15:29:01.230Z,101081.11
2018-01-13T15:31:28.790Z,101083.12
2018-01-13T15:33:56.379Z,101082.53
2018-01-13T15:36:23.992Z,101086.05
2018-01-13T15:38:51.595Z,101094.27
2018-01-13T15:41:19.180Z,101090.89
2018-01-13T15:43:46.786Z,101091.47
2018-01-13T15:46:14.371Z,101089.66
2018-01-13T15:48:41.985Z,101091.61
2018-01-13T15:51:09.597Z,101090.49
2018-01-13T15:53:37.162Z,101097.03
2018-01-13T15:56:04.712Z,101097.39
2018-01-13T15:58:32.292Z,101096.44
2018-01-13T16:00:59.867Z,101094.93
2018-01-13T16:03:27.440Z,101097.99
2018-01-13T16:05:55.047Z,101097.92
2018-01-13T16:08:22.620Z,101096.17
2018-01-13T16:10:50.189Z,101088.90
2018-01-13T16:13:17.801Z,101098.92
2018-01-13T16:15:45.373Z,101102.40
2018-01-13T16:18:12.943Z,101104.30
2018-01-13T16:20:40.554Z,101100.30
2018-01-13T16:23:08.126Z,101097.24
2018-01-13T16:25:35.735Z,101100.45
2018-01-13T16:28:03.357Z,101111.56
2018-01-13T16:30:30.924Z,101103.32
2018-01-13T16:32:58.494Z,101107.78
2018-01-13T16:35:26.096Z,101099.42
2018-01-13T16:37:53.753Z,101100.50
2018-01-13T16:40:21.335Z,101104.61
2018-01-13T16:42:49.271Z,101107.47
2018-01-13T16:45:16.856Z,101109.91
2018-01-13T16:47:44.424Z,101116.59
2018-01-13T16:50:12.052Z,101107.33
2018-01-13T16:52:39.625Z,101115.45
2018-01-13T16:55:07.388Z,101121.45
2018-01-13T16:57:35.084Z,101124.70
2018-01-13T17:00:03.703Z,101128.11
2018-01-13T17:02:31.844Z,101127.42
2018-01-13T17:04:59.665Z,101130.95
2018-01-13T17:07:27.250Z,101132.25
2018-01-13T17:09:55.023Z,101141.29
2018-01-13T17:12:22.666Z,101138.69
2018-01-13T17:14:50.231Z,101134.84
2018-01-13T17:17:17.863Z,101142.43
2018-01-13T17:19:45.470Z,101144.55
2018-01-13T17:22:13.049Z,101139.17
2018-01-13T17:24:40.855Z,101137.80
2018-01-13T17:27:08.452Z,101138.31
2018-01-13T17:29:35.997Z,101149.72
2018-01-13T17:32:03.556Z,101147.55
2018-01-13T17:34:31.167Z,101146.31
2018-01-13T17:36:58.737Z,101147.20
2018-01-13T17:39:26.293Z,101147.28
2018-01-13T17:41:54.093Z,101155.97
2018-01-13T17:44:21.662Z,101157.18
2018-01-13T17:46:49.405Z,101159.60
2018-01-13T17:49:17.065Z,101153.91
2018-01-13T17:51:44.731Z,101149.45
2018-01-13T17:54:12.303Z,101161.50
2018-01-13T17:56:39.907Z,101164.27
2018-01-13T17:59:07.494Z,101165.66
2018-01-13T18:01:35.086Z,101161.50
2018-01-13T18:04:02.688Z,101163.21
2018-01-13T18:06:30.253Z,101164.88
2018-01-13T18:08:57.820Z,101165.67
2018-01-13T18:11:25.482Z,101162.55
2018-01-13T18:13:53.048Z,101165.39
2018-01-13T18:16:20.591Z,101167.39
2018-01-13T18:18:48.240Z,101161.16
2018-01-13T18:21:15.819Z,101166.78
2018-01-13T18:23:43.421Z,101170.19
2018-01-13T18:26:11.046Z,101163.94
2018-01-13T18:28:38.608Z,101167.20
2018-01-13T18:31:06.180Z,101164.27
2018-01-13T18:33:33.790Z,101164.56
2018-01-13T18:36:01.359Z,101167.61
2018-01-13T18:38:28.924Z,101170.03
2018-01-13T18:40:56.528Z,101170.45
2018-01-13T18:43:24.076Z,101172.48
2018-01-13T18:45:51.660Z,101170.27
2018-01-13T18:48:19.319Z,101177.47
2018-01-13T18:50:46.879Z,101184.02
2018-01-13T18:53:14.451Z,101171.91
2018-01-13T18:55:42.068Z,101175.32
2018-01-13T18:58:09.619Z,101180.19
2018-01-13T19:00:37.180Z,101191.23
2018-01-13T19:03:04.794Z,101187.52
2018-01-13T19:05:32.364Z,101191.36
2018-01-13T19:07:59.945Z,101203.66
2018-01-13T19:10:27.550Z,101190.77
2018-01-13T19:12:55.110Z,101185.59
2018-01-13T19:15:22.654Z,101196.76
2018-01-13T19:17:50.244Z,101195.21
2018-01-13T19:20:17.803Z,101198.63
2018-01-13T19:22:45.549Z,101191.12
2018-01-13T19:25:13.176Z,101198.14
2018-01-13T19:27:40.729Z,101199.20
2018-01-13T19:30:08.292Z,101188.83
2018-01-13T19:32:36.009Z,101203.55
2018-01-13T19:35:03.586Z,101202.33
2018-01-13T19:37:31.168Z,101211.47
2018-01-13T19:39:58.775Z,101204.87
2018-01-13T19:42:26.325Z,101209.52
2018-01-13T19:44:53.912Z,101214.39
2018-01-13T19:47:21.503Z,101213.12
2018-01-13T19:49:49.237Z,101212.58
2018-01-13T19:52:16.804Z,101205.99
2018-01-13T19:54:44.391Z,101209.05
2018-01-13T19:57:11.939Z,101207.38
2018-01-13T19:59:39.689Z,101201.67
2018-01-13T20:02:07.280Z,101209.87
2018-01-13T20:04:34.834Z,101200.66
2018-01-13T20:07:02.430Z,101210.79
2018-01-13T20:09:34.323Z,101214.65
2018-01-13T20:12:02.389Z,101205.81
2018-01-13T20:14:30.159Z,101215.94
2018-01-13T20:16:57.741Z,101204.26
2018-01-13T20:19:26.977Z,101216.01
2018-01-13T20:21:54.703Z,101216.11
2018-01-13T20:24:22.674Z,101225.95
2018-01-13T20:26:50.529Z,101223.67
2018-01-13T20:29:18.155Z,101223.61
2018-01-13T20:31:45.892Z,101225.07
2018-01-13T20:34:13.531Z,101231.17
2018-01-13T20:36:41.364Z,101236.45
2018-01-13T20:39:08.911Z,101244.23
2018-01-13T20:41:36.505Z,101249.95
2018-01-13T20:44:04.799Z,101251.42
2018-01-13T20:46:32.495Z,101251.65
2018-01-13T20:49:00.097Z,101253.64
2018-01-13T20:51:27.761Z,101266.26
2018-01-13T20:53:55.542Z,101258.77
2018-01-13T20:56:23.312Z,101257.59
2018-01-13T20:58:50.879Z,101267.42
2018-01-13T21:01:18.441Z,101260.06
2018-01-13T21:03:46.269Z,101264.96
2018-01-13T21:06:13.836Z,101264.98
2018-01-13T21:08:41.902Z,101263.74
2018-01-13T21:11:09.572Z,101262.66
2018-01-13T21:13:37.354Z,101270.03
2018-01-13T21:16:04.993Z,101267.20
2018-01-13T21:18:32.676Z,101273.16
2018-01-13T21:21:00.341Z,101256.91
2018-01-13T21:23:27.903Z,101266.95
2018-01-13T21:25:55.514Z,101274.48
2018-01-13T21:28:23.106Z,101276.34
2018-01-13T21:30:50.666Z,101276.80
2018-01-13T21:33:18.285Z,101284.86
2018-01-13T21:35:46.120Z,101270.48
2018-01-13T21:38:13.678Z,101275.75
2018-01-13T21:40:41.361Z,101278.45
2018-01-13T21:43:09.092Z,101274.65
2018-01-13T21:45:36.743Z,101274.52
2018-01-13T21:48:04.654Z,101286.23
2018-01-13T21:50:32.278Z,101280.79
2018-01-13T21:53:00.047Z,101283.58
2018-01-13T21:55:27.815Z,101284.53
2018-01-13T21:57:55.429Z,101291.52
2018-01-13T22:00:23.148Z,101302.84
2018-01-13T22:02:51.215Z,101300.77
2018-01-13T22:05:18.766Z,101295.02
2018-01-13T22:07:46.443Z,101302.08
2018-01-13T22:10:14.186Z,101308.42
2018-01-13T22:12:41.858Z,101310.67
2018-01-13T22:15:09.427Z,101297.13
2018-01-13T22:17:37.029Z,101298.85
2018-01-13T22:20:04.691Z,101296.02
2018-01-13T22:22:32.265Z,101294.04
2018-01-13T22:24:59.862Z,101292.25
2018-01-13T22:27:27.534Z,101291.94
2018-01-13T22:29:55.279Z,101299.42
2018-01-13T22:32:22.891Z,101300.44
2018-01-13T22:34:50.451Z,101300.94
2018-01-13T22:37:18.122Z,101302.20
2018-01-13T22:39:45.937Z,101300.06
2018-01-13T22:42:13.592Z,101296.39
2018-01-13T22:44:41.151Z,101297.35
2018-01-13T22:47:08.904Z,101302.88
2018-01-13T22:49:36.457Z,101294.14
2018-01-13T22:52:04.014Z,101291.33
2018-01-13T22:54:31.613Z,101294.52
2018-01-13T22:56:59.188Z,101297.13
2018-01-13T22:59:26.752Z,101296.20
2018-01-13T23:01:54.523Z,101290.70
2018-01-13T23:04:22.083Z,101284.33
2018-01-13T23:06:49.796Z,101290.60
2018-01-13T23:09:17.684Z,101288.95
2018-01-13T23:11:45.288Z,101297.83
2018-01-13T23:14:13.011Z,101290.41
2018-01-13T23:16:40.595Z,101281.72
2018-01-13T23:19:08.156Z,101283.77
2018-01-13T23:21:35.735Z,101295.68
2018-01-13T23:24:03.362Z,101293.92
2018-01-13T23:26:30.912Z,101291.65
2018-01-13T23:28:58.478Z,101285.16
2018-01-13T23:31:26.230Z,101293.97
2018-01-13T23:33:53.884Z,101292.52
2018-01-13T23:36:21.540Z,101300.22
2018-01-13T23:38:49.140Z,101299.98
2018-01-13T23:41:17.232Z,101300.72
2018-01-13T23:43:44.854Z,101293.97
2018-01-13T23:46:12.503Z,101291.20
2018-01-13T23:48:40.264Z,101285.25
2018-01-13T23:51:07.830Z,101293.09
2018-01-13T23:53:35.428Z,101277.13
2018-01-13T23:56:02.996Z,101277.61
2018-01-13T23:58:30.559Z,101281.92
